createdAt,value
2017-12-14T00:00:32.137Z,15.73
2017-12-14T00:03:00.473Z,13.27
2017-12-14T00:05:29.494Z,11.90
2017-12-14T00:07:57.743Z,12.00
2017-12-14T00:10:34.635Z,10.73
2017-12-14T00:13:03.819Z,12.57
2017-12-14T00:15:32.903Z,14.57
2017-12-14T00:18:01.183Z,11.43
2017-12-14T00:20:29.509Z,11.30
2017-12-14T00:22:57.774Z,10.60
2017-12-14T00:25:26.018Z,11.63
2017-12-14T00:27:54.389Z,10.80
2017-12-14T00:30:22.658Z,12.87
2017-12-14T00:32:51.896Z,14.07
2017-12-14T00:35:20.262Z,10.10
2017-12-14T00:37:49.275Z,10.00
2017-12-14T00:40:17.510Z,11.40
2017-12-14T00:42:45.844Z,11.90
2017-12-14T00:45:14.073Z,10.60
2017-12-14T00:47:43.101Z,11.67
2017-12-14T00:50:12.369Z,10.20
2017-12-14T00:52:40.632Z,7.40
2017-12-14T00:55:08.906Z,11.67
2017-12-14T00:57:37.357Z,11.23
2017-12-14T01:00:05.638Z,9.50
2017-12-14T01:02:33.924Z,8.40
2017-12-14T01:05:02.339Z,10.80
2017-12-14T01:07:30.609Z,11.23
2017-12-14T01:09:58.855Z,8.33
2017-12-14T01:12:27.198Z,9.20
2017-12-14T01:14:55.465Z,11.50
2017-12-14T01:17:23.710Z,8.30
2017-12-14T01:19:52.802Z,10.00
2017-12-14T01:22:21.855Z,10.10
2017-12-14T01:24:50.145Z,8.47
2017-12-14T01:27:18.565Z,8.37
2017-12-14T01:29:46.806Z,9.27
2017-12-14T01:32:15.074Z,9.10
2017-12-14T01:34:43.526Z,7.50
2017-12-14T01:37:11.801Z,7.33
2017-12-14T01:39:40.032Z,8.07
2017-12-14T01:42:09.164Z,9.53
2017-12-14T01:44:37.423Z,8.67
2017-12-14T01:47:05.718Z,10.90
2017-12-14T01:49:34.084Z,8.70
2017-12-14T01:52:03.130Z,8.70
2017-12-14T01:54:31.470Z,6.90
2017-12-14T01:57:00.017Z,8.30
2017-12-14T01:59:29.040Z,8.30
2017-12-14T02:01:57.484Z,6.93
2017-12-14T02:04:26.509Z,8.07
2017-12-14T02:06:54.879Z,12.63
2017-12-14T02:09:23.406Z,8.63
2017-12-14T02:11:51.673Z,9.10
2017-12-14T02:14:19.920Z,7.73
2017-12-14T02:16:49.148Z,7.80
2017-12-14T02:19:17.436Z,6.60
2017-12-14T02:21:45.689Z,5.90
2017-12-14T02:24:14.071Z,11.40
2017-12-14T02:26:42.328Z,8.13
2017-12-14T02:29:10.601Z,6.40
2017-12-14T02:31:39.047Z,6.90
2017-12-14T02:34:08.084Z,6.30
2017-12-14T02:36:36.374Z,7.10
2017-12-14T02:39:04.707Z,6.23
2017-12-14T02:41:33.006Z,7.80
2017-12-14T02:44:01.268Z,8.00
2017-12-14T02:46:29.728Z,7.80
2017-12-14T02:48:58.183Z,7.77
2017-12-14T02:51:26.461Z,6.00
2017-12-14T02:53:54.883Z,13.13
2017-12-14T02:56:23.129Z,6.53
2017-12-14T02:58:51.440Z,6.03
2017-12-14T03:01:19.856Z,6.60
2017-12-14T03:03:48.193Z,7.03
2017-12-14T03:06:16.461Z,6.53
2017-12-14T03:08:44.750Z,5.57
2017-12-14T03:11:13.020Z,5.63
2017-12-14T03:13:41.496Z,5.33
2017-12-14T03:16:09.754Z,6.60
2017-12-14T03:18:38.763Z,6.13
2017-12-14T03:21:07.196Z,5.43
2017-12-14T03:23:35.461Z,5.17
2017-12-14T03:26:03.723Z,5.43
2017-12-14T03:28:32.061Z,6.50
2017-12-14T03:31:01.066Z,5.60
2017-12-14T03:33:29.361Z,6.60
2017-12-14T03:35:57.848Z,6.27
2017-12-14T03:38:26.111Z,4.43
2017-12-14T03:40:54.380Z,7.83
2017-12-14T03:43:22.707Z,7.67
2017-12-14T03:45:50.950Z,5.70
2017-12-14T03:48:19.265Z,4.80
2017-12-14T03:50:47.779Z,6.27
2017-12-14T03:53:16.067Z,7.30
2017-12-14T03:55:44.297Z,5.90
2017-12-14T03:58:12.731Z,5.97
2017-12-14T04:00:41.032Z,5.30
2017-12-14T04:03:09.375Z,5.77
2017-12-14T04:05:37.848Z,7.07
2017-12-14T04:08:06.928Z,6.00
2017-12-14T04:10:35.965Z,5.90
2017-12-14T04:13:04.310Z,6.17
2017-12-14T04:15:32.551Z,5.17
2017-12-14T04:18:00.806Z,5.10
2017-12-14T04:20:29.235Z,7.10
2017-12-14T04:22:57.482Z,7.60
2017-12-14T04:25:26.534Z,5.83
2017-12-14T04:27:54.867Z,5.50
2017-12-14T04:30:23.985Z,5.63
2017-12-14T04:32:52.235Z,7.23
2017-12-14T04:35:21.237Z,5.03
2017-12-14T04:37:50.330Z,5.83
2017-12-14T04:40:18.602Z,6.80
2017-12-14T04:42:47.639Z,5.00
2017-12-14T04:45:16.071Z,6.93
2017-12-14T04:47:44.416Z,7.80
2017-12-14T04:50:12.756Z,6.93
2017-12-14T04:52:41.193Z,4.60
2017-12-14T04:55:09.451Z,6.97
2017-12-14T04:57:37.711Z,5.83
2017-12-14T05:00:06.052Z,6.40
2017-12-14T05:02:34.298Z,6.47
2017-12-14T05:05:02.619Z,7.23
2017-12-14T05:07:30.969Z,5.87
2017-12-14T05:09:59.993Z,6.40
2017-12-14T05:12:28.303Z,8.40
2017-12-14T05:14:56.707Z,5.80
2017-12-14T05:17:25.765Z,5.30
2017-12-14T05:19:54.022Z,5.77
2017-12-14T05:22:22.380Z,6.50
2017-12-14T05:24:50.642Z,8.47
2017-12-14T05:27:18.920Z,8.53
2017-12-14T05:29:47.239Z,5.47
2017-12-14T05:32:15.512Z,9.10
2017-12-14T05:34:43.835Z,7.93
2017-12-14T05:37:12.831Z,9.23
2017-12-14T05:39:41.867Z,6.47
2017-12-14T05:42:10.206Z,5.23
2017-12-14T05:44:39.207Z,7.00
2017-12-14T05:47:08.211Z,7.33
2017-12-14T05:49:36.539Z,10.17
2017-12-14T05:52:04.831Z,12.20
2017-12-14T05:54:33.081Z,12.10
2017-12-14T05:57:01.420Z,11.10
2017-12-14T05:59:29.649Z,8.20
2017-12-14T06:01:57.881Z,8.37
2017-12-14T06:04:26.325Z,5.77
2017-12-14T06:06:55.612Z,6.23
2017-12-14T06:09:23.888Z,7.30
2017-12-14T06:11:53.882Z,7.00
2017-12-14T06:14:24.139Z,5.07
2017-12-14T06:16:53.248Z,4.43
2017-12-14T06:19:21.475Z,6.20
2017-12-14T06:21:49.910Z,5.30
2017-12-14T06:24:18.137Z,6.30
2017-12-14T06:26:46.422Z,3.80
2017-12-14T06:29:15.593Z,5.13
2017-12-14T06:31:43.833Z,8.57
2017-12-14T06:34:12.068Z,4.73
2017-12-14T06:36:40.452Z,6.67
2017-12-14T06:39:08.699Z,5.93
2017-12-14T06:41:36.928Z,5.07
2017-12-14T06:44:05.230Z,4.90
2017-12-14T06:46:33.441Z,6.00
2017-12-14T06:49:02.598Z,4.70
2017-12-14T06:51:30.846Z,7.20
2017-12-14T06:53:59.870Z,5.80
2017-12-14T06:56:28.156Z,4.37
2017-12-14T06:58:56.481Z,7.47
2017-12-14T07:01:24.740Z,5.17
2017-12-14T07:03:53.004Z,5.60
2017-12-14T07:06:21.362Z,5.20
2017-12-14T07:08:49.648Z,5.30
2017-12-14T07:11:17.855Z,5.93
2017-12-14T07:13:46.975Z,4.87
2017-12-14T07:16:15.214Z,4.80
2017-12-14T07:18:43.455Z,6.07
2017-12-14T07:21:11.908Z,6.00
2017-12-14T07:23:40.140Z,5.50
2017-12-14T07:26:08.368Z,5.20
2017-12-14T07:28:36.697Z,4.70
2017-12-14T07:31:04.942Z,5.50
2017-12-14T07:33:33.157Z,5.13
2017-12-14T07:36:02.317Z,5.50
2017-12-14T07:38:30.579Z,5.07
2017-12-14T07:40:59.583Z,5.70
2017-12-14T07:43:27.964Z,5.60
2017-12-14T07:46:14.698Z,5.20
2017-12-14T07:51:48.015Z,6.60
2017-12-14T07:54:16.470Z,5.90
2017-12-14T07:56:44.722Z,5.00
2017-12-14T07:59:13.737Z,9.67
2017-12-14T08:01:42.088Z,5.50
2017-12-14T08:04:10.306Z,4.80
2017-12-14T08:06:38.529Z,6.00
2017-12-14T08:09:06.878Z,6.03
2017-12-14T08:11:35.885Z,5.40
2017-12-14T08:14:04.946Z,6.53
2017-12-14T08:16:33.186Z,6.63
2017-12-14T08:19:01.570Z,6.47
2017-12-14T08:21:29.809Z,5.27
2017-12-14T08:23:58.079Z,6.73
2017-12-14T08:26:27.260Z,7.93
2017-12-14T08:28:56.266Z,6.90
2017-12-14T08:31:25.259Z,6.77
2017-12-14T08:33:53.764Z,5.20
2017-12-14T08:36:22.019Z,7.70
2017-12-14T08:38:50.248Z,8.63
2017-12-14T08:41:19.455Z,6.60
2017-12-14T08:43:47.700Z,6.20
2017-12-14T08:46:15.956Z,8.60
2017-12-14T08:48:45.095Z,10.40
2017-12-14T08:51:13.347Z,10.40
2017-12-14T08:53:41.611Z,10.20
2017-12-14T08:56:11.012Z,13.53
2017-12-14T08:58:39.999Z,8.90
2017-12-14T09:01:08.257Z,14.73
2017-12-14T09:03:36.582Z,8.77
2017-12-14T09:06:04.933Z,8.47
2017-12-14T09:08:33.204Z,9.43
2017-12-14T09:11:01.591Z,7.50
2017-12-14T09:13:29.927Z,6.50
2017-12-14T09:15:58.949Z,8.87
2017-12-14T09:18:27.190Z,6.27
2017-12-14T09:20:56.392Z,8.10
2017-12-14T09:23:24.626Z,7.10
2017-12-14T09:25:52.861Z,6.20
2017-12-14T09:28:21.950Z,9.97
2017-12-14T09:30:50.248Z,5.60
2017-12-14T09:33:18.503Z,7.10
2017-12-14T09:35:47.580Z,11.27
2017-12-14T09:38:15.871Z,10.73
2017-12-14T09:40:44.896Z,9.60
2017-12-14T09:43:14.121Z,11.47
2017-12-14T09:45:42.361Z,8.17
2017-12-14T09:48:10.684Z,8.93
2017-12-14T09:50:39.031Z,8.10
2017-12-14T09:53:07.290Z,8.70
2017-12-14T09:55:35.552Z,10.13
2017-12-14T09:58:03.979Z,10.40
2017-12-14T10:00:32.248Z,10.53
2017-12-14T10:03:00.487Z,8.80
2017-12-14T10:05:28.891Z,8.20
2017-12-14T10:07:57.173Z,8.60
2017-12-14T10:10:25.426Z,9.90
2017-12-14T10:12:53.730Z,9.80
2017-12-14T10:15:21.998Z,7.80
2017-12-14T10:17:50.257Z,7.97
2017-12-14T10:20:18.625Z,12.80
2017-12-14T10:22:46.902Z,10.73
2017-12-14T10:25:15.181Z,12.60
2017-12-14T10:27:43.593Z,9.10
2017-12-14T10:30:11.931Z,13.27
2017-12-14T10:32:40.164Z,14.47
2017-12-14T10:35:08.494Z,14.67
2017-12-14T10:37:36.736Z,17.87
2017-12-14T10:40:05.020Z,8.63
2017-12-14T10:42:33.362Z,10.70
2017-12-14T10:45:01.690Z,10.90
2017-12-14T10:47:29.962Z,8.00
2017-12-14T10:49:58.298Z,10.67
2017-12-14T10:52:26.663Z,8.13
2017-12-14T10:54:54.911Z,9.53
2017-12-14T10:57:23.318Z,8.53
2017-12-14T10:59:51.651Z,8.80
2017-12-14T11:02:20.053Z,6.20
2017-12-14T11:04:48.486Z,6.70
2017-12-14T11:07:17.509Z,4.80
2017-12-14T11:09:45.759Z,4.70
2017-12-14T11:12:14.919Z,5.30
2017-12-14T11:14:43.195Z,6.30
2017-12-14T11:17:11.536Z,6.10
2017-12-14T11:19:39.910Z,4.67
2017-12-14T11:22:08.210Z,4.30
2017-12-14T11:24:36.464Z,6.20
2017-12-14T11:27:04.865Z,3.73
2017-12-14T11:29:33.144Z,5.50
2017-12-14T11:32:01.724Z,4.93
2017-12-14T11:34:30.020Z,4.70
2017-12-14T11:36:58.288Z,4.27
2017-12-14T11:39:26.742Z,3.43
2017-12-14T11:41:54.997Z,4.90
2017-12-14T11:44:23.255Z,5.50
2017-12-14T11:46:51.614Z,4.67
2017-12-14T11:49:19.899Z,5.30
2017-12-14T11:51:48.151Z,5.93
2017-12-14T11:54:16.627Z,4.20
2017-12-14T11:56:44.914Z,5.10
2017-12-14T11:59:13.182Z,5.10
2017-12-14T12:01:41.535Z,6.20
2017-12-14T12:04:09.803Z,5.53
2017-12-14T12:06:38.070Z,6.27
2017-12-14T12:09:06.441Z,7.57
2017-12-14T12:11:34.721Z,4.60
2017-12-14T12:14:02.971Z,5.17
2017-12-14T12:16:32.174Z,5.13
2017-12-14T12:19:01.180Z,5.97
2017-12-14T12:21:29.442Z,5.20
2017-12-14T12:23:58.530Z,6.27
2017-12-14T12:26:27.554Z,5.20
2017-12-14T12:28:55.818Z,5.37
2017-12-14T12:31:24.138Z,4.80
2017-12-14T12:33:52.409Z,5.83
2017-12-14T12:36:20.670Z,4.87
2017-12-14T12:38:48.973Z,3.80
2017-12-14T12:41:17.254Z,4.70
2017-12-14T12:43:45.558Z,5.30
2017-12-14T12:46:14.655Z,6.80
2017-12-14T12:48:43.699Z,4.17
2017-12-14T12:51:11.928Z,4.40
2017-12-14T12:53:41.185Z,5.10
2017-12-14T12:56:09.447Z,6.27
2017-12-14T12:58:37.675Z,6.23
2017-12-14T13:01:06.753Z,8.13
2017-12-14T13:03:35.033Z,5.77
2017-12-14T13:06:03.273Z,4.60
2017-12-14T13:08:31.670Z,5.10
2017-12-14T13:11:00.715Z,4.67
2017-12-14T13:13:28.967Z,5.57
2017-12-14T13:15:58.040Z,4.50
2017-12-14T13:18:26.302Z,5.63
2017-12-14T13:20:54.540Z,4.77
2017-12-14T13:23:22.853Z,4.73
2017-12-14T13:25:51.091Z,6.63
2017-12-14T13:28:19.327Z,5.40
2017-12-14T13:30:47.696Z,7.17
2017-12-14T13:33:15.986Z,7.47
2017-12-14T13:35:44.990Z,7.33
2017-12-14T13:38:14.068Z,6.73
2017-12-14T13:40:42.353Z,4.73
2017-12-14T13:43:11.373Z,6.70
2017-12-14T13:45:39.689Z,7.73
2017-12-14T13:48:07.937Z,4.60
2017-12-14T13:50:36.175Z,5.20
2017-12-14T13:53:05.308Z,5.27
2017-12-14T13:55:33.563Z,7.90
2017-12-14T13:58:01.805Z,7.87
2017-12-14T14:00:30.877Z,7.03
2017-12-14T14:02:59.101Z,5.87
2017-12-14T14:05:27.330Z,6.33
2017-12-14T14:07:55.623Z,9.87
2017-12-14T14:10:23.873Z,15.60
2017-12-14T14:12:52.151Z,16.20
2017-12-14T14:15:20.501Z,7.40
2017-12-14T14:17:48.729Z,5.10
2017-12-14T14:20:16.993Z,5.60
2017-12-14T14:22:45.279Z,9.40
2017-12-14T14:25:13.653Z,7.80
2017-12-14T14:27:41.902Z,7.33
2017-12-14T14:30:10.146Z,5.33
2017-12-14T14:32:38.449Z,4.77
2017-12-14T14:35:06.680Z,10.43
2017-12-14T14:37:35.771Z,9.53
2017-12-14T14:40:04.766Z,7.50
2017-12-14T14:42:33.830Z,9.50
2017-12-14T14:45:02.074Z,9.63
2017-12-14T14:47:30.290Z,12.63
2017-12-14T14:49:58.604Z,5.53
2017-12-14T14:52:26.858Z,7.70
2017-12-14T14:54:55.976Z,8.40
2017-12-14T14:57:25.308Z,8.47
2017-12-14T14:59:53.545Z,8.60
2017-12-14T15:02:21.913Z,8.83
2017-12-14T15:04:50.306Z,8.20
2017-12-14T15:07:18.625Z,7.80
2017-12-14T15:09:46.866Z,8.13
2017-12-14T15:12:15.201Z,8.03
2017-12-14T15:14:43.532Z,9.70
2017-12-14T15:17:12.091Z,8.30
2017-12-14T15:19:40.430Z,9.87
2017-12-14T15:22:08.713Z,10.23
2017-12-14T15:24:37.101Z,10.67
2017-12-14T15:27:06.139Z,12.80
2017-12-14T15:29:34.370Z,10.83
2017-12-14T15:32:03.424Z,12.30
2017-12-14T15:34:31.725Z,13.20
2017-12-14T15:36:59.977Z,9.67
2017-12-14T15:39:28.231Z,8.07
2017-12-14T15:41:56.644Z,12.23
2017-12-14T15:44:25.166Z,11.40
2017-12-14T15:46:53.820Z,6.57
2017-12-14T15:49:22.201Z,9.27
2017-12-14T15:51:50.477Z,9.23
2017-12-14T15:54:18.755Z,13.63
2017-12-14T15:56:47.164Z,11.90
2017-12-14T15:59:15.503Z,14.33
2017-12-14T16:01:43.809Z,9.83
2017-12-14T16:04:12.302Z,8.27
2017-12-14T16:06:40.648Z,7.10
2017-12-14T16:09:09.687Z,8.50
2017-12-14T16:11:38.069Z,9.60
2017-12-14T16:14:06.462Z,7.97
2017-12-14T16:16:34.750Z,7.63
2017-12-14T16:19:03.075Z,10.33
2017-12-14T16:21:31.323Z,7.63
2017-12-14T16:23:59.623Z,12.07
2017-12-14T16:26:27.998Z,18.90
2017-12-14T16:28:56.295Z,11.93
2017-12-14T16:31:24.691Z,14.27
2017-12-14T16:33:53.029Z,13.27
2017-12-14T16:36:22.229Z,14.30
2017-12-14T16:38:50.520Z,9.97
2017-12-14T16:41:19.007Z,14.00
2017-12-14T16:43:47.289Z,11.90
2017-12-14T16:46:15.546Z,11.87
2017-12-14T16:48:43.994Z,10.43
2017-12-14T16:51:13.117Z,14.10
2017-12-14T16:53:42.015Z,14.30
2017-12-14T16:56:10.326Z,11.90
2017-12-14T16:58:38.706Z,15.23
2017-12-14T17:01:07.062Z,21.13
2017-12-14T17:03:35.329Z,19.57
2017-12-14T17:06:03.776Z,14.13
2017-12-14T17:08:32.835Z,15.03
2017-12-14T17:11:01.172Z,14.80
2017-12-14T17:13:29.568Z,14.57
2017-12-14T17:15:57.866Z,17.50
2017-12-14T17:18:26.116Z,14.60
2017-12-14T17:20:55.547Z,13.60
2017-12-14T17:23:24.271Z,16.83
2017-12-14T17:25:52.562Z,15.67
2017-12-14T17:28:21.670Z,16.43
2017-12-14T17:30:49.935Z,17.73
2017-12-14T17:33:18.175Z,14.03
2017-12-14T17:35:46.506Z,11.93
2017-12-14T17:38:14.813Z,20.03
2017-12-14T17:40:43.058Z,11.53
2017-12-14T17:43:11.332Z,16.13
2017-12-14T17:45:39.655Z,11.97
2017-12-14T17:48:07.898Z,10.73
2017-12-14T17:50:36.166Z,18.00
2017-12-14T17:53:04.470Z,15.53
2017-12-14T17:55:33.174Z,13.40
2017-12-14T17:58:01.462Z,15.57
2017-12-14T18:00:30.544Z,12.93
2017-12-14T18:02:58.775Z,16.57
2017-12-14T18:05:27.037Z,13.83
2017-12-14T18:07:55.391Z,10.20
2017-12-14T18:10:24.385Z,12.10
2017-12-14T18:12:52.648Z,10.30
2017-12-14T18:15:21.716Z,12.87
2017-12-14T18:17:49.984Z,10.63
2017-12-14T18:20:18.267Z,12.03
2017-12-14T18:22:46.593Z,11.83
2017-12-14T18:25:14.864Z,12.73
2017-12-14T18:27:43.877Z,13.97
2017-12-14T18:30:12.180Z,11.93
2017-12-14T18:32:40.457Z,14.83
2017-12-14T18:35:08.782Z,15.47
2017-12-14T18:37:37.853Z,11.00
2017-12-14T18:40:06.931Z,14.10
2017-12-14T18:42:35.181Z,14.37
2017-12-14T18:45:03.572Z,17.30
2017-12-14T18:47:31.829Z,10.47
2017-12-14T18:50:00.177Z,21.83
2017-12-14T18:52:29.439Z,13.77
2017-12-14T18:54:57.699Z,13.67
2017-12-14T18:57:26.630Z,12.73
2017-12-14T18:59:59.080Z,10.50
2017-12-14T19:02:27.385Z,11.03
2017-12-14T19:04:55.917Z,10.97
2017-12-14T19:07:24.791Z,11.73
2017-12-14T19:09:53.119Z,15.13
2017-12-14T19:12:21.405Z,15.13
2017-12-14T19:14:50.497Z,14.20
2017-12-14T19:17:20.311Z,13.67
2017-12-14T19:19:49.247Z,10.67
2017-12-14T19:22:18.759Z,10.40
2017-12-14T19:24:47.699Z,17.43
2017-12-14T19:27:16.743Z,13.40
2017-12-14T19:32:47.201Z,13.77
2017-12-14T19:35:30.294Z,11.77
2017-12-14T19:38:11.503Z,10.33
2017-12-14T19:40:41.274Z,13.53
2017-12-14T19:43:09.655Z,14.80
2017-12-14T19:45:40.661Z,10.93
2017-12-14T19:48:08.958Z,14.23
2017-12-14T19:50:37.273Z,13.00
2017-12-14T19:53:05.633Z,13.13
2017-12-14T19:55:33.959Z,11.83
2017-12-14T19:58:02.633Z,12.37
2017-12-14T20:00:31.032Z,11.13
2017-12-14T20:03:00.253Z,9.70
2017-12-14T20:05:32.050Z,13.47
2017-12-14T20:08:04.262Z,12.50
2017-12-14T20:10:35.772Z,12.00
2017-12-14T20:13:06.032Z,11.70
2017-12-14T20:15:36.545Z,11.13
2017-12-14T20:18:09.283Z,14.07
2017-12-14T20:20:38.187Z,9.70
2017-12-14T20:23:07.549Z,11.43
2017-12-14T20:25:35.881Z,9.27
2017-12-14T20:28:04.271Z,11.30
2017-12-14T20:30:33.428Z,10.70
2017-12-14T20:36:11.643Z,17.30
2017-12-14T20:38:45.713Z,10.00
2017-12-14T20:41:14.977Z,11.83
2017-12-14T20:43:43.319Z,9.43
2017-12-14T20:46:15.535Z,10.83
2017-12-14T20:48:43.819Z,8.17
2017-12-14T20:51:12.196Z,9.77
2017-12-14T20:53:40.576Z,11.80
2017-12-14T20:56:08.969Z,11.70
2017-12-14T20:58:37.290Z,10.20
2017-12-14T21:01:05.600Z,10.10
2017-12-14T21:03:33.839Z,9.77
2017-12-14T21:06:02.162Z,12.80
2017-12-14T21:08:30.426Z,13.80
2017-12-14T21:10:58.778Z,12.70
2017-12-14T21:13:27.106Z,11.40
2017-12-14T21:15:55.338Z,8.67
2017-12-14T21:18:24.439Z,14.00
2017-12-14T21:20:52.961Z,8.37
2017-12-14T21:23:21.255Z,10.10
2017-12-14T21:25:50.373Z,9.93
2017-12-14T21:28:18.630Z,7.70
2017-12-14T21:30:47.667Z,10.00
2017-12-14T21:33:15.997Z,7.30
2017-12-14T21:35:45.170Z,8.30
2017-12-14T21:38:13.524Z,9.60
2017-12-14T21:40:41.867Z,11.13
2017-12-14T21:43:10.132Z,9.07
2017-12-14T21:45:39.288Z,8.30
2017-12-14T21:48:07.585Z,10.10
2017-12-14T21:50:36.980Z,15.10
2017-12-14T21:53:05.334Z,8.57
2017-12-14T21:55:33.604Z,6.77
2017-12-14T21:58:02.835Z,7.63
2017-12-14T22:00:32.298Z,5.80
2017-12-14T22:03:00.658Z,6.70
2017-12-14T22:05:28.918Z,8.77
2017-12-14T22:07:57.235Z,16.90
2017-12-14T22:10:25.753Z,11.70
2017-12-14T22:12:54.042Z,12.40
2017-12-14T22:15:23.188Z,9.20
2017-12-14T22:17:51.427Z,15.97
2017-12-14T22:20:20.742Z,10.87
2017-12-14T22:22:49.297Z,8.30
2017-12-14T22:25:18.395Z,9.83
2017-12-14T22:27:47.468Z,11.07
2017-12-14T22:30:15.797Z,12.10
2017-12-14T22:32:44.041Z,7.83
2017-12-14T22:35:12.976Z,10.90
2017-12-14T22:37:41.269Z,12.80
2017-12-14T22:40:09.512Z,9.10
2017-12-14T22:42:37.746Z,9.53
2017-12-14T22:45:06.827Z,8.37
2017-12-14T22:47:35.072Z,10.17
2017-12-14T22:50:03.434Z,7.37
2017-12-14T22:52:31.681Z,11.50
2017-12-14T22:55:00.686Z,9.03
2017-12-14T22:57:28.991Z,7.50
2017-12-14T22:59:57.326Z,12.47
2017-12-14T23:02:25.611Z,11.27
2017-12-14T23:04:53.948Z,7.90
2017-12-14T23:07:22.248Z,11.57
2017-12-14T23:09:51.267Z,8.30
2017-12-14T23:12:19.628Z,8.80
2017-12-14T23:14:47.909Z,8.13
2017-12-14T23:17:16.161Z,10.70
2017-12-14T23:19:44.858Z,8.83
2017-12-14T23:22:13.143Z,8.60
2017-12-14T23:24:41.413Z,11.17
2017-12-14T23:27:09.718Z,7.87
2017-12-14T23:29:37.962Z,9.00
2017-12-14T23:32:06.967Z,13.43
2017-12-14T23:34:35.461Z,8.60
2017-12-14T23:37:03.703Z,6.53
2017-12-14T23:39:32.719Z,11.10
2017-12-14T23:42:01.879Z,8.03
2017-12-14T23:44:30.129Z,8.67
2017-12-14T23:46:58.358Z,8.60
2017-12-14T23:49:26.724Z,9.93
2017-12-14T23:51:54.984Z,10.17
2017-12-14T23:54:23.271Z,9.13
2017-12-14T23:56:51.724Z,10.37
2017-12-14T23:59:20.009Z,13.00
